sensor_id;sensor_type;location;lat;lon;timestamp;pressure;altitude;pressure_sealevel;temperature;humidity
69223;BME280;56514;51.816;-0.026;2022-12-04T00:01:43;101222.44;;;5.48;69.72
69223;BME280;56514;51.816;-0.026;2022-12-04T00:04:50;101220.16;;;5.39;69.29
69223;BME280;56514;51.816;-0.026;2022-12-04T00:07:54;101219.50;;;5.34;69.68
69223;BME280;56514;51.816;-0.026;2022-12-04T00:11:01;101212.50;;;5.35;69.49
69223;BME280;56514;51.816;-0.026;2022-12-04T00:14:11;101209.88;;;5.35;69.38
69223;BME280;56514;51.816;-0.026;2022-12-04T00:17:20;101210.19;;;5.27;69.33
69223;BME280;56514;51.816;-0.026;2022-12-04T00:20:30;101205.31;;;5.18;69.51
69223;BME280;56514;51.816;-0.026;2022-12-04T00:23:39;101205.53;;;5.12;69.52
69223;BME280;56514;51.816;-0.026;2022-12-04T00:26:49;101208.28;;;5.09;69.91
69223;BME280;56514;51.816;-0.026;2022-12-04T00:29:58;101200.06;;;5.18;69.92
69223;BME280;56514;51.816;-0.026;2022-12-04T00:33:07;101199.34;;;5.36;69.59
69223;BME280;56514;51.816;-0.026;2022-12-04T00:36:18;101202.22;;;5.52;69.70
69223;BME280;56514;51.816;-0.026;2022-12-04T00:39:04;101190.25;;;5.68;69.27
69223;BME280;56514;51.816;-0.026;2022-12-04T00:41:49;101192.28;;;5.83;69.07
69223;BME280;56514;51.816;-0.026;2022-12-04T00:44:33;101181.38;;;5.94;68.87
69223;BME280;56514;51.816;-0.026;2022-12-04T00:47:18;101184.47;;;6.03;68.54
69223;BME280;56514;51.816;-0.026;2022-12-04T00:50:04;101181.44;;;6.12;68.37
69223;BME280;56514;51.816;-0.026;2022-12-04T00:52:49;101179.31;;;6.20;67.90
69223;BME280;56514;51.816;-0.026;2022-12-04T00:55:39;101176.38;;;6.28;68.07
69223;BME280;56514;51.816;-0.026;2022-12-04T00:58:24;101167.34;;;6.35;67.66
69223;BME280;56514;51.816;-0.026;2022-12-04T01:01:13;101173.19;;;6.41;67.54
69223;BME280;56514;51.816;-0.026;2022-12-04T01:03:58;101163.41;;;6.45;67.62
69223;BME280;56514;51.816;-0.026;2022-12-04T01:06:45;101166.69;;;6.50;67.60
69223;BME280;56514;51.816;-0.026;2022-12-04T01:09:31;101176.03;;;6.55;67.58
69223;BME280;56514;51.816;-0.026;2022-12-04T01:12:16;101168.88;;;6.59;67.41
69223;BME280;56514;51.816;-0.026;2022-12-04T01:15:01;101167.00;;;6.62;67.31
69223;BME280;56514;51.816;-0.026;2022-12-04T01:17:46;101159.06;;;6.64;66.88
69223;BME280;56514;51.816;-0.026;2022-12-04T01:20:31;101155.44;;;6.66;66.92
69223;BME280;56514;51.816;-0.026;2022-12-04T01:23:17;101154.50;;;6.67;66.43
69223;BME280;56514;51.816;-0.026;2022-12-04T01:26:02;101159.63;;;6.70;66.60
69223;BME280;56514;51.816;-0.026;2022-12-04T01:28:47;101150.91;;;6.70;66.64
69223;BME280;56514;51.816;-0.026;2022-12-04T01:31:32;101149.13;;;6.70;65.99
69223;BME280;56514;51.816;-0.026;2022-12-04T01:34:18;101149.91;;;6.72;66.02
69223;BME280;56514;51.816;-0.026;2022-12-04T01:37:02;101151.72;;;6.72;66.21
69223;BME280;56514;51.816;-0.026;2022-12-04T01:39:47;101146.56;;;6.69;66.13
69223;BME280;56514;51.816;-0.026;2022-12-04T01:42:32;101148.28;;;6.70;65.86
69223;BME280;56514;51.816;-0.026;2022-12-04T01:48:40;101151.97;;;6.66;65.49
69223;BME280;56514;51.816;-0.026;2022-12-04T01:51:32;101150.13;;;6.68;65.87
69223;BME280;56514;51.816;-0.026;2022-12-04T01:54:24;101149.25;;;6.67;65.74
69223;BME280;56514;51.816;-0.026;2022-12-04T01:57:15;101147.56;;;6.66;65.44
69223;BME280;56514;51.816;-0.026;2022-12-04T02:00:12;101146.66;;;6.67;65.66
69223;BME280;56514;51.816;-0.026;2022-12-04T02:02:58;101141.47;;;6.66;65.11
69223;BME280;56514;51.816;-0.026;2022-12-04T02:05:43;101139.66;;;6.68;65.47
69223;BME280;56514;51.816;-0.026;2022-12-04T02:08:28;101136.09;;;6.69;65.75
69223;BME280;56514;51.816;-0.026;2022-12-04T02:14:45;101136.75;;;6.74;65.34
69223;BME280;56514;51.816;-0.026;2022-12-04T02:20:52;101135.06;;;6.73;65.39
69223;BME280;56514;51.816;-0.026;2022-12-04T02:26:52;101142.91;;;6.73;64.95
69223;BME280;56514;51.816;-0.026;2022-12-04T02:30:02;101147.16;;;6.75;64.95
69223;BME280;56514;51.816;-0.026;2022-12-04T02:35:46;101137.81;;;6.70;64.45
69223;BME280;56514;51.816;-0.026;2022-12-04T02:38:39;101136.09;;;6.69;65.18
69223;BME280;56514;51.816;-0.026;2022-12-04T02:41:41;101144.88;;;6.68;64.49
69223;BME280;56514;51.816;-0.026;2022-12-04T02:44:34;101143.06;;;6.70;64.74
69223;BME280;56514;51.816;-0.026;2022-12-04T02:47:23;101146.72;;;6.66;64.68
69223;BME280;56514;51.816;-0.026;2022-12-04T02:50:13;101135.63;;;6.61;64.76
69223;BME280;56514;51.816;-0.026;2022-12-04T02:53:09;101133.00;;;6.61;64.99
69223;BME280;56514;51.816;-0.026;2022-12-04T02:56:00;101128.66;;;6.60;65.05
69223;BME280;56514;51.816;-0.026;2022-12-04T02:59:02;101137.38;;;6.60;64.95
69223;BME280;56514;51.816;-0.026;2022-12-04T03:01:53;101134.69;;;6.62;64.95
69223;BME280;56514;51.816;-0.026;2022-12-04T03:04:40;101133.00;;;6.61;64.82
69223;BME280;56514;51.816;-0.026;2022-12-04T03:07:35;101124.34;;;6.59;64.97
69223;BME280;56514;51.816;-0.026;2022-12-04T03:10:31;101123.47;;;6.58;65.47
69223;BME280;56514;51.816;-0.026;2022-12-04T03:13:23;101127.97;;;6.56;65.19
69223;BME280;56514;51.816;-0.026;2022-12-04T03:16:21;101116.88;;;6.50;65.67
69223;BME280;56514;51.816;-0.026;2022-12-04T03:19:11;101117.81;;;6.49;65.89
69223;BME280;56514;51.816;-0.026;2022-12-04T03:22:02;101113.41;;;6.49;65.86
69223;BME280;56514;51.816;-0.026;2022-12-04T03:24:51;101115.13;;;6.50;65.63
69223;BME280;56514;51.816;-0.026;2022-12-04T03:30:35;101109.88;;;6.50;65.86
69223;BME280;56514;51.816;-0.026;2022-12-04T03:33:30;101102.84;;;6.51;66.01
69223;BME280;56514;51.816;-0.026;2022-12-04T03:36:23;101107.88;;;6.55;66.20
69223;BME280;56514;51.816;-0.026;2022-12-04T03:42:13;101103.38;;;6.59;66.09
69223;BME280;56514;51.816;-0.026;2022-12-04T03:45:02;101115.53;;;6.60;65.89
69223;BME280;56514;51.816;-0.026;2022-12-04T03:48:03;101113.63;;;6.63;66.15
69223;BME280;56514;51.816;-0.026;2022-12-04T03:50:55;101110.00;;;6.66;65.77
69223;BME280;56514;51.816;-0.026;2022-12-04T03:53:50;101107.41;;;6.66;66.09
69223;BME280;56514;51.816;-0.026;2022-12-04T03:56:51;101106.50;;;6.67;66.04
69223;BME280;56514;51.816;-0.026;2022-12-04T03:59:42;101105.63;;;6.66;66.52
69223;BME280;56514;51.816;-0.026;2022-12-04T04:02:33;101103.81;;;6.68;66.36
69223;BME280;56514;51.816;-0.026;2022-12-04T04:05:21;101103.81;;;6.68;66.56
69223;BME280;56514;51.816;-0.026;2022-12-04T04:08:08;101110.72;;;6.69;66.58
69223;BME280;56514;51.816;-0.026;2022-12-04T04:11:17;101105.50;;;6.69;66.67
69223;BME280;56514;51.816;-0.026;2022-12-04T04:14:12;101109.88;;;6.69;66.85
69223;BME280;56514;51.816;-0.026;2022-12-04T04:17:20;101099.38;;;6.69;66.93
69223;BME280;56514;51.816;-0.026;2022-12-04T04:20:42;101101.09;;;6.70;67.32
69223;BME280;56514;51.816;-0.026;2022-12-04T04:23:49;101106.28;;;6.71;67.05
69223;BME280;56514;51.816;-0.026;2022-12-04T04:26:57;101108.03;;;6.71;67.34
69223;BME280;56514;51.816;-0.026;2022-12-04T04:29:43;101107.19;;;6.70;67.31
69223;BME280;56514;51.816;-0.026;2022-12-04T04:32:49;101100.09;;;6.72;67.20
69223;BME280;56514;51.816;-0.026;2022-12-04T04:35:48;101101.03;;;6.71;67.82
69223;BME280;56514;51.816;-0.026;2022-12-04T04:38:46;101103.81;;;6.68;67.55
69223;BME280;56514;51.816;-0.026;2022-12-04T04:41:43;101102.09;;;6.67;67.70
69223;BME280;56514;51.816;-0.026;2022-12-04T04:44:47;101107.31;;;6.67;67.70
69223;BME280;56514;51.816;-0.026;2022-12-04T04:47:46;101109.81;;;6.70;68.23
69223;BME280;56514;51.816;-0.026;2022-12-04T04:50:32;101108.03;;;6.71;68.41
69223;BME280;56514;51.816;-0.026;2022-12-04T04:53:22;101109.03;;;6.68;68.24
69223;BME280;56514;51.816;-0.026;2022-12-04T04:56:10;101101.25;;;6.67;68.46
69223;BME280;56514;51.816;-0.026;2022-12-04T04:58:57;101106.56;;;6.65;68.46
69223;BME280;56514;51.816;-0.026;2022-12-04T05:01:44;101101.41;;;6.64;68.84
69223;BME280;56514;51.816;-0.026;2022-12-04T05:04:29;101102.28;;;6.63;68.82
69223;BME280;56514;51.816;-0.026;2022-12-04T05:07:14;101106.06;;;6.57;69.08
69223;BME280;56514;51.816;-0.026;2022-12-04T05:09:59;101110.72;;;6.51;69.05
69223;BME280;56514;51.816;-0.026;2022-12-04T05:12:44;101110.09;;;6.46;69.79
69223;BME280;56514;51.816;-0.026;2022-12-04T05:15:32;101113.63;;;6.45;69.41
69223;BME280;56514;51.816;-0.026;2022-12-04T05:18:17;101109.31;;;6.44;69.45
69223;BME280;56514;51.816;-0.026;2022-12-04T05:21:10;101116.22;;;6.45;69.47
69223;BME280;56514;51.816;-0.026;2022-12-04T05:24:02;101119.78;;;6.44;69.58
69223;BME280;56514;51.816;-0.026;2022-12-04T05:26:47;101116.22;;;6.45;69.03
69223;BME280;56514;51.816;-0.026;2022-12-04T05:29:31;101118.78;;;6.46;69.24
69223;BME280;56514;51.816;-0.026;2022-12-04T05:32:16;101115.25;;;6.47;69.10
69223;BME280;56514;51.816;-0.026;2022-12-04T05:35:01;101110.03;;;6.47;69.24
69223;BME280;56514;51.816;-0.026;2022-12-04T05:37:46;101116.09;;;6.48;69.52
69223;BME280;56514;51.816;-0.026;2022-12-04T05:40:31;101119.44;;;6.51;69.05
69223;BME280;56514;51.816;-0.026;2022-12-04T05:43:16;101118.50;;;6.52;69.06
69223;BME280;56514;51.816;-0.026;2022-12-04T05:46:02;101115.97;;;6.51;69.14
69223;BME280;56514;51.816;-0.026;2022-12-04T05:48:47;101120.31;;;6.52;69.24
69223;BME280;56514;51.816;-0.026;2022-12-04T05:51:32;101107.06;;;6.55;69.35
69223;BME280;56514;51.816;-0.026;2022-12-04T05:54:18;101113.84;;;6.59;69.25
69223;BME280;56514;51.816;-0.026;2022-12-04T05:57:03;101109.31;;;6.62;69.35
69223;BME280;56514;51.816;-0.026;2022-12-04T05:59:49;101115.47;;;6.61;68.99
69223;BME280;56514;51.816;-0.026;2022-12-04T06:02:35;101110.16;;;6.63;69.20
69223;BME280;56514;51.816;-0.026;2022-12-04T06:05:19;101117.94;;;6.64;68.92
69223;BME280;56514;51.816;-0.026;2022-12-04T06:08:04;101113.63;;;6.63;69.19
69223;BME280;56514;51.816;-0.026;2022-12-04T06:10:49;101115.41;;;6.63;69.21
69223;BME280;56514;51.816;-0.026;2022-12-04T06:13:33;101112.84;;;6.61;68.95
69223;BME280;56514;51.816;-0.026;2022-12-04T06:16:30;101112.91;;;6.60;69.48
69223;BME280;56514;51.816;-0.026;2022-12-04T06:19:17;101113.00;;;6.58;68.83
69223;BME280;56514;51.816;-0.026;2022-12-04T06:22:02;101109.47;;;6.59;68.97
69223;BME280;56514;51.816;-0.026;2022-12-04T06:24:47;101112.16;;;6.58;69.21
69223;BME280;56514;51.816;-0.026;2022-12-04T06:27:32;101120.03;;;6.58;69.21
69223;BME280;56514;51.816;-0.026;2022-12-04T06:30:17;101117.41;;;6.58;69.36
69223;BME280;56514;51.816;-0.026;2022-12-04T06:33:02;101121.91;;;6.54;69.13
69223;BME280;56514;51.816;-0.026;2022-12-04T06:35:47;101122.84;;;6.53;68.95
69223;BME280;56514;51.816;-0.026;2022-12-04T06:38:41;101126.38;;;6.52;69.57
69223;BME280;56514;51.816;-0.026;2022-12-04T06:41:27;101129.00;;;6.52;68.88
69223;BME280;56514;51.816;-0.026;2022-12-04T06:44:13;101125.59;;;6.50;69.37
69223;BME280;56514;51.816;-0.026;2022-12-04T06:46:58;101128.16;;;6.52;69.29
69223;BME280;56514;51.816;-0.026;2022-12-04T06:49:43;101135.09;;;6.53;69.37
69223;BME280;56514;51.816;-0.026;2022-12-04T06:52:32;101130.66;;;6.55;69.22
69223;BME280;56514;51.816;-0.026;2022-12-04T06:55:17;101137.50;;;6.57;69.53
69223;BME280;56514;51.816;-0.026;2022-12-04T06:58:02;101135.69;;;6.59;68.85
69223;BME280;56514;51.816;-0.026;2022-12-04T07:00:46;101134.81;;;6.59;69.13
69223;BME280;56514;51.816;-0.026;2022-12-04T07:03:31;101134.81;;;6.59;69.51
69223;BME280;56514;51.816;-0.026;2022-12-04T07:06:21;101137.38;;;6.60;69.38
69223;BME280;56514;51.816;-0.026;2022-12-04T07:09:08;101136.50;;;6.60;68.96
69223;BME280;56514;51.816;-0.026;2022-12-04T07:11:57;101144.38;;;6.60;69.27
69223;BME280;56514;51.816;-0.026;2022-12-04T07:14:42;101145.38;;;6.57;68.94
69223;BME280;56514;51.816;-0.026;2022-12-04T07:17:27;101138.38;;;6.58;69.42
69223;BME280;56514;51.816;-0.026;2022-12-04T07:20:12;101138.66;;;6.52;69.18
69223;BME280;56514;51.816;-0.026;2022-12-04T07:22:57;101142.22;;;6.49;69.04
69223;BME280;56514;51.816;-0.026;2022-12-04T07:25:42;101143.38;;;6.44;69.06
69223;BME280;56514;51.816;-0.026;2022-12-04T07:28:27;101136.44;;;6.43;69.08
69223;BME280;56514;51.816;-0.026;2022-12-04T07:31:15;101137.19;;;6.45;68.92
69223;BME280;56514;51.816;-0.026;2022-12-04T07:34:00;101141.47;;;6.47;69.11
69223;BME280;56514;51.816;-0.026;2022-12-04T07:36:45;101147.53;;;6.48;69.23
69223;BME280;56514;51.816;-0.026;2022-12-04T07:39:30;101137.91;;;6.48;69.34
69223;BME280;56514;51.816;-0.026;2022-12-04T07:42:14;101146.72;;;6.47;69.37
69223;BME280;56514;51.816;-0.026;2022-12-04T07:44:59;101145.84;;;6.47;69.12
69223;BME280;56514;51.816;-0.026;2022-12-04T07:47:44;101147.53;;;6.48;68.99
69223;BME280;56514;51.816;-0.026;2022-12-04T07:50:28;101150.09;;;6.49;69.35
69223;BME280;56514;51.816;-0.026;2022-12-04T07:53:13;101149.19;;;6.50;69.56
69223;BME280;56514;51.816;-0.026;2022-12-04T07:55:58;101146.50;;;6.52;69.47
69223;BME280;56514;51.816;-0.026;2022-12-04T07:58:44;101144.66;;;6.54;69.47
69223;BME280;56514;51.816;-0.026;2022-12-04T08:01:29;101152.38;;;6.57;69.62
69223;BME280;56514;51.816;-0.026;2022-12-04T08:04:15;101154.09;;;6.58;69.54
69223;BME280;56514;51.816;-0.026;2022-12-04T08:07:00;101153.16;;;6.59;69.18
69223;BME280;56514;51.816;-0.026;2022-12-04T08:09:45;101158.28;;;6.62;69.86
69223;BME280;56514;51.816;-0.026;2022-12-04T08:12:34;101154.72;;;6.63;69.56
69223;BME280;56514;51.816;-0.026;2022-12-04T08:15:18;101159.91;;;6.64;69.73
69223;BME280;56514;51.816;-0.026;2022-12-04T08:18:06;101163.38;;;6.65;69.59
69223;BME280;56514;51.816;-0.026;2022-12-04T08:20:51;101158.00;;;6.68;70.03
69223;BME280;56514;51.816;-0.026;2022-12-04T08:23:36;101167.38;;;6.73;69.85
69223;BME280;56514;51.816;-0.026;2022-12-04T08:26:23;101166.38;;;6.76;69.81
69223;BME280;56514;51.816;-0.026;2022-12-04T08:29:09;101165.44;;;6.77;69.97
69223;BME280;56514;51.816;-0.026;2022-12-04T08:31:58;101175.78;;;6.80;69.94
69223;BME280;56514;51.816;-0.026;2022-12-04T08:34:43;101176.50;;;6.83;69.72
69223;BME280;56514;51.816;-0.026;2022-12-04T08:37:28;101179.94;;;6.85;69.69
69223;BME280;56514;51.816;-0.026;2022-12-04T08:40:13;101180.63;;;6.89;69.84
69223;BME280;56514;51.816;-0.026;2022-12-04T08:42:58;101187.50;;;6.91;69.58
69223;BME280;56514;51.816;-0.026;2022-12-04T08:45:53;101182.97;;;6.95;69.54
69223;BME280;56514;51.816;-0.026;2022-12-04T08:48:39;101180.34;;;6.95;69.91
69223;BME280;56514;51.816;-0.026;2022-12-04T08:51:27;101189.00;;;6.97;69.63
69223;BME280;56514;51.816;-0.026;2022-12-04T08:54:12;101182.81;;;6.98;69.25
69223;BME280;56514;51.816;-0.026;2022-12-04T08:56:57;101185.38;;;6.99;69.88
69223;BME280;56514;51.816;-0.026;2022-12-04T08:59:42;101187.16;;;6.99;69.46
69223;BME280;56514;51.816;-0.026;2022-12-04T09:02:26;101190.53;;;7.01;69.82
69223;BME280;56514;51.816;-0.026;2022-12-04T09:05:11;101188.78;;;7.01;69.70
69223;BME280;56514;51.816;-0.026;2022-12-04T09:07:57;101186.88;;;7.05;69.54
69223;BME280;56514;51.816;-0.026;2022-12-04T09:10:42;101188.56;;;7.06;69.51
69223;BME280;56514;51.816;-0.026;2022-12-04T09:13:27;101193.66;;;7.09;69.57
69223;BME280;56514;51.816;-0.026;2022-12-04T09:16:15;101195.25;;;7.13;69.32
69223;BME280;56514;51.816;-0.026;2022-12-04T09:19:00;101191.56;;;7.17;69.22
69223;BME280;56514;51.816;-0.026;2022-12-04T09:21:46;101194.03;;;7.20;69.23
69223;BME280;56514;51.816;-0.026;2022-12-04T09:24:30;101200.91;;;7.22;69.04
69223;BME280;56514;51.816;-0.026;2022-12-04T09:27:15;101202.63;;;7.24;68.99
69223;BME280;56514;51.816;-0.026;2022-12-04T09:30:01;101206.88;;;7.26;68.75
69223;BME280;56514;51.816;-0.026;2022-12-04T09:32:46;101200.69;;;7.27;69.00
69223;BME280;56514;51.816;-0.026;2022-12-04T09:35:30;101205.84;;;7.29;68.98
69223;BME280;56514;51.816;-0.026;2022-12-04T09:38:15;101211.81;;;7.32;69.17
69223;BME280;56514;51.816;-0.026;2022-12-04T09:41:02;101209.13;;;7.34;69.06
69223;BME280;56514;51.816;-0.026;2022-12-04T09:43:57;101209.91;;;7.36;68.54
69223;BME280;56514;51.816;-0.026;2022-12-04T09:46:49;101214.94;;;7.40;69.01
69223;BME280;56514;51.816;-0.026;2022-12-04T09:49:40;101219.19;;;7.43;68.88
69223;BME280;56514;51.816;-0.026;2022-12-04T09:52:45;101227.00;;;7.44;68.41
69223;BME280;56514;51.816;-0.026;2022-12-04T09:55:44;101231.44;;;7.42;68.26
69223;BME280;56514;51.816;-0.026;2022-12-04T10:01:44;101226.13;;;7.44;68.67
69223;BME280;56514;51.816;-0.026;2022-12-04T10:04:30;101230.25;;;7.49;68.66
69223;BME280;56514;51.816;-0.026;2022-12-04T10:07:21;101228.34;;;7.53;68.69
69223;BME280;56514;51.816;-0.026;2022-12-04T10:10:35;101229.97;;;7.55;68.64
69223;BME280;56514;51.816;-0.026;2022-12-04T10:22:34;101221.00;;;7.59;67.81
69223;BME280;56514;51.816;-0.026;2022-12-04T10:25:25;101225.38;;;7.60;67.89
69223;BME280;56514;51.816;-0.026;2022-12-04T10:28:36;101222.81;;;7.59;67.96
69223;BME280;56514;51.816;-0.026;2022-12-04T10:31:23;101220.13;;;7.60;68.26
69223;BME280;56514;51.816;-0.026;2022-12-04T10:34:18;101223.41;;;7.64;68.04
69223;BME280;56514;51.816;-0.026;2022-12-04T10:37:11;101230.31;;;7.66;68.35
69223;BME280;56514;51.816;-0.026;2022-12-04T10:40:17;101215.53;;;7.64;67.91
69223;BME280;56514;51.816;-0.026;2022-12-04T10:43:15;101227.84;;;7.63;67.84
69223;BME280;56514;51.816;-0.026;2022-12-04T10:46:01;101218.31;;;7.61;68.02
69223;BME280;56514;51.816;-0.026;2022-12-04T10:48:48;101212.25;;;7.60;68.06
69223;BME280;56514;51.816;-0.026;2022-12-04T10:51:40;101210.28;;;7.64;67.79
69223;BME280;56514;51.816;-0.026;2022-12-04T10:54:37;101209.31;;;7.66;67.96
69223;BME280;56514;51.816;-0.026;2022-12-04T10:57:42;101207.38;;;7.70;68.08
69223;BME280;56514;51.816;-0.026;2022-12-04T11:00:32;101208.22;;;7.70;68.09
69223;BME280;56514;51.816;-0.026;2022-12-04T11:03:27;101202.03;;;7.71;68.04
69223;BME280;56514;51.816;-0.026;2022-12-04T11:06:13;101195.19;;;7.69;67.68
69223;BME280;56514;51.816;-0.026;2022-12-04T11:08:58;101198.66;;;7.69;67.48
69223;BME280;56514;51.816;-0.026;2022-12-04T11:11:43;101197.66;;;7.72;67.64
69223;BME280;56514;51.816;-0.026;2022-12-04T11:14:28;101195.03;;;7.72;67.41
69223;BME280;56514;51.816;-0.026;2022-12-04T11:17:17;101195.81;;;7.74;67.63
69223;BME280;56514;51.816;-0.026;2022-12-04T11:20:05;101201.00;;;7.75;67.29
69223;BME280;56514;51.816;-0.026;2022-12-04T11:22:57;101192.19;;;7.76;67.65
69223;BME280;56514;51.816;-0.026;2022-12-04T11:25:46;101200.06;;;7.76;67.16
69223;BME280;56514;51.816;-0.026;2022-12-04T11:28:32;101199.91;;;7.79;67.49
69223;BME280;56514;51.816;-0.026;2022-12-04T11:31:20;101200.69;;;7.81;67.22
69223;BME280;56514;51.816;-0.026;2022-12-04T11:34:15;101196.19;;;7.83;67.45
69223;BME280;56514;51.816;-0.026;2022-12-04T11:37:01;101203.00;;;7.87;67.23
69223;BME280;56514;51.816;-0.026;2022-12-04T11:39:47;101200.38;;;7.87;66.78
69223;BME280;56514;51.816;-0.026;2022-12-04T11:42:32;101190.63;;;7.89;66.73
69223;BME280;56514;51.816;-0.026;2022-12-04T11:45:19;101193.25;;;7.89;66.67
69223;BME280;56514;51.816;-0.026;2022-12-04T11:48:16;101188.00;;;7.89;66.83
69223;BME280;56514;51.816;-0.026;2022-12-04T11:51:07;101190.63;;;7.89;66.80
69223;BME280;56514;51.816;-0.026;2022-12-04T11:54:09;101191.41;;;7.91;67.09
69223;BME280;56514;51.816;-0.026;2022-12-04T11:57:08;101192.13;;;7.95;66.71
69223;BME280;56514;51.816;-0.026;2022-12-04T12:00:17;101197.22;;;7.98;66.46
69223;BME280;56514;51.816;-0.026;2022-12-04T12:03:18;101196.38;;;7.97;66.47
69223;BME280;56514;51.816;-0.026;2022-12-04T12:12:26;101202.56;;;7.96;66.47
69223;BME280;56514;51.816;-0.026;2022-12-04T12:16:26;101205.25;;;7.95;66.68
69223;BME280;56514;51.816;-0.026;2022-12-04T12:22:23;101200.94;;;7.94;66.34
69223;BME280;56514;51.816;-0.026;2022-12-04T12:25:26;101188.63;;;7.94;66.06
69223;BME280;56514;51.816;-0.026;2022-12-04T12:28:41;101191.34;;;7.93;66.45
69223;BME280;56514;51.816;-0.026;2022-12-04T12:34:37;101187.72;;;7.95;66.26
69223;BME280;56514;51.816;-0.026;2022-12-04T12:37:31;101195.69;;;7.94;66.48
69223;BME280;56514;51.816;-0.026;2022-12-04T12:40:30;101193.13;;;7.92;66.51
69223;BME280;56514;51.816;-0.026;2022-12-04T12:43:32;101192.13;;;7.95;66.52
69223;BME280;56514;51.816;-0.026;2022-12-04T12:46:39;101190.19;;;7.98;66.12
69223;BME280;56514;51.816;-0.026;2022-12-04T12:53:00;101185.09;;;7.95;66.16
69223;BME280;56514;51.816;-0.026;2022-12-04T12:55:53;101185.09;;;7.95;65.83
69223;BME280;56514;51.816;-0.026;2022-12-04T12:58:44;101182.47;;;7.95;66.01
69223;BME280;56514;51.816;-0.026;2022-12-04T13:04:38;101172.66;;;7.99;66.12
69223;BME280;56514;51.816;-0.026;2022-12-04T13:10:36;101154.25;;;7.99;65.78
69223;BME280;56514;51.816;-0.026;2022-12-04T13:13:26;101158.69;;;7.98;66.13
69223;BME280;56514;51.816;-0.026;2022-12-04T13:16:35;101161.16;;;8.01;66.13
69223;BME280;56514;51.816;-0.026;2022-12-04T13:19:26;101157.75;;;7.99;66.38
69223;BME280;56514;51.816;-0.026;2022-12-04T13:28:41;101166.25;;;8.04;65.98
69223;BME280;56514;51.816;-0.026;2022-12-04T13:31:58;101172.25;;;8.06;66.31
69223;BME280;56514;51.816;-0.026;2022-12-04T13:41:18;101161.00;;;8.04;65.84
69223;BME280;56514;51.816;-0.026;2022-12-04T13:44:13;101159.19;;;8.05;65.99
69223;BME280;56514;51.816;-0.026;2022-12-04T13:47:06;101155.66;;;8.06;66.45
69223;BME280;56514;51.816;-0.026;2022-12-04T13:50:26;101160.06;;;8.05;65.77
69223;BME280;56514;51.816;-0.026;2022-12-04T13:53:30;101160.84;;;8.07;65.93
69223;BME280;56514;51.816;-0.026;2022-12-04T13:56:26;101160.84;;;8.07;66.39
69223;BME280;56514;51.816;-0.026;2022-12-04T14:02:31;101163.47;;;8.07;65.72
69223;BME280;56514;51.816;-0.026;2022-12-04T14:05:27;101167.00;;;8.06;65.64
69223;BME280;56514;51.816;-0.026;2022-12-04T14:08:26;101160.38;;;7.99;65.22
69223;BME280;56514;51.816;-0.026;2022-12-04T14:11:15;101161.97;;;8.02;65.56
69223;BME280;56514;51.816;-0.026;2022-12-04T14:14:02;101168.34;;;7.98;65.44
69223;BME280;56514;51.816;-0.026;2022-12-04T14:16:47;101166.47;;;8.00;65.86
69223;BME280;56514;51.816;-0.026;2022-12-04T14:19:44;101161.16;;;8.01;65.63
69223;BME280;56514;51.816;-0.026;2022-12-04T14:25:30;101160.44;;;7.98;65.64
69223;BME280;56514;51.816;-0.026;2022-12-04T14:28:38;101162.22;;;7.97;65.69
69223;BME280;56514;51.816;-0.026;2022-12-04T14:31:36;101153.59;;;7.95;65.56
69223;BME280;56514;51.816;-0.026;2022-12-04T14:34:25;101161.53;;;7.94;65.25
69223;BME280;56514;51.816;-0.026;2022-12-04T14:37:22;101162.69;;;7.88;65.55
69223;BME280;56514;51.816;-0.026;2022-12-04T14:40:22;101163.63;;;7.87;65.38
69223;BME280;56514;51.816;-0.026;2022-12-04T14:43:23;101162.91;;;7.84;65.39
69223;BME280;56514;51.816;-0.026;2022-12-04T14:46:17;101166.63;;;7.80;65.27
69223;BME280;56514;51.816;-0.026;2022-12-04T14:49:27;101172.03;;;7.77;65.57
69223;BME280;56514;51.816;-0.026;2022-12-04T14:52:26;101168.63;;;7.75;65.08
69223;BME280;56514;51.816;-0.026;2022-12-04T14:55:43;101182.59;;;7.75;65.15
69223;BME280;56514;51.816;-0.026;2022-12-04T14:58:33;101179.13;;;7.75;65.44
69223;BME280;56514;51.816;-0.026;2022-12-04T15:01:30;101184.28;;;7.76;65.14
69223;BME280;56514;51.816;-0.026;2022-12-04T15:04:31;101189.00;;;7.70;65.15
69223;BME280;56514;51.816;-0.026;2022-12-04T15:07:21;101190.94;;;7.66;65.36
69223;BME280;56514;51.816;-0.026;2022-12-04T15:10:26;101201.59;;;7.63;65.56
69223;BME280;56514;51.816;-0.026;2022-12-04T15:13:32;101202.63;;;7.59;64.89
69223;BME280;56514;51.816;-0.026;2022-12-04T15:16:21;101202.03;;;7.54;64.62
69223;BME280;56514;51.816;-0.026;2022-12-04T15:19:15;101209.97;;;7.53;64.93
69223;BME280;56514;51.816;-0.026;2022-12-04T15:22:04;101210.88;;;7.52;64.67
69223;BME280;56514;51.816;-0.026;2022-12-04T15:24:51;101203.88;;;7.52;64.83
69223;BME280;56514;51.816;-0.026;2022-12-04T15:27:38;101210.81;;;7.53;64.85
69223;BME280;56514;51.816;-0.026;2022-12-04T15:30:25;101212.72;;;7.50;64.33
69223;BME280;56514;51.816;-0.026;2022-12-04T15:33:16;101216.34;;;7.47;64.54
69223;BME280;56514;51.816;-0.026;2022-12-04T15:36:07;101226.84;;;7.47;64.56
69223;BME280;56514;51.816;-0.026;2022-12-04T15:38:53;101229.47;;;7.47;64.58
69223;BME280;56514;51.816;-0.026;2022-12-04T15:41:38;101225.31;;;7.43;64.55
69223;BME280;56514;51.816;-0.026;2022-12-04T15:44:26;101230.63;;;7.42;64.30
69223;BME280;56514;51.816;-0.026;2022-12-04T15:47:19;101233.31;;;7.40;64.52
69223;BME280;56514;51.816;-0.026;2022-12-04T15:55:55;101252.59;;;7.39;64.84
69223;BME280;56514;51.816;-0.026;2022-12-04T15:58:52;101257.00;;;7.39;64.67
69223;BME280;56514;51.816;-0.026;2022-12-04T16:01:38;101255.38;;;7.36;64.83
69223;BME280;56514;51.816;-0.026;2022-12-04T16:04:27;101259.84;;;7.34;64.82
69223;BME280;56514;51.816;-0.026;2022-12-04T16:07:31;101260.75;;;7.33;64.39
69223;BME280;56514;51.816;-0.026;2022-12-04T16:10:27;101266.16;;;7.30;64.23
69223;BME280;56514;51.816;-0.026;2022-12-04T16:13:32;101278.50;;;7.28;64.26
69223;BME280;56514;51.816;-0.026;2022-12-04T16:16:20;101272.41;;;7.28;64.39
69223;BME280;56514;51.816;-0.026;2022-12-04T16:22:13;101292.38;;;7.30;64.19